Tulsa, OK (74182)

4:35 PM CDT on April 26, 2017 (GMT -0500)
Maple Ridge | | Change Station
Active Advisory: Flood Warning

Elev 738 ft 36.14 °N, 95.98 °W | Updated 13 seconds ago

Overcast
Overcast
51.6 °F
Feels Like 51.6 °F
N
1.0
Wind Variable Wind from ENE
Gusts 8.0 mph

Today
High -- | Low -- °F
--% Chance of Precip.
Yesterday
High -- | Low -- °F
Precip. -- in
Pressure 29.63 in
Visibility 10.0 miles
Clouds Overcast 2200 ft
Dew Point 43 °F
Humidity 73%
Rainfall 0.02 in
Snow Depth Not available.
6:36 AM 8:07 PM
New Moon, 0% visible
METAR KTUL 262053Z 32013G20KT 10SM OVC022 11/07 A2964 RMK AO2 SLP034 T01060067 51004
Pressure 29.63 in
Visibility 10.0 miles
Clouds Overcast 2200 ft
Dew Point 43 °F
Humidity 73%
Rainfall 0.02 in
Snow Depth Not available.
6:36 AM 8:07 PM
New Moon, 0% visible
METAR KTUL 262053Z 32013G20KT 10SM OVC022 11/07 A2964 RMK AO2 SLP034 T01060067 51004

Get Your Daily Forecast Email!

Thanks for signing up!

Be on the lookout for a verification email in your inbox.

You'll start receiving severe weather alerts in your inbox..

×

10-Day Weather Forecast

Almanac

Astronomy

Apr. 26, 2017 Rise Set
Actual Time
Civil Twilight
Nautical Twilight
Astronomical Twilight
Moon
Length of Visible Light
Length of Day
Tomorrow will be .
, % of the Moon is Illuminated

Today's Extremes

State Highs State Lows

Community

WunderPhotos

WunderBlog® & News

Nearby

Air Quality

  Air Quality AQ Index Pollutant
Not available.

Snow Depth

Station Depth Elevation

Earthquake Activity

City Distance Mag. Time & Date
Minimum magnitude displayed is 2.5.

Coastal Water Temperatures

Place Temperature

Stations

Nearby Weather Stations

Station Location Temp. Windchill Dew Point Humidity Wind Precip. Elev Updated Type
                   

Watches & Warnings

Flood Warning
Issued: 2:19 PM CDT Apr. 26, 2017 – National Weather Service

The National Weather Service in Tulsa has issued a

* Flood Warning for
the Caney river near Collinsville
* from Thursday morning to Thursday afternoon, or until the warning
is cancelled.
* At 1:30 PM Wednesday, the stage was 22.51 feet.
* Flood stage is 26.0 feet.
* Minor flooding is forecast.
* Forecast... the Caney river near Collinsville is expected to rise
just above flood stage at 26.1 feet Thursday morning. The river is
expected to fall below flood stage late Thursday morning.
* Impact... at 26.0 feet, minor lowland flooding occurs.


Lat... Lon 3643 9580 3636 9564 3630 9570 3635 9588